Time;durP1;ratioP1;P1;durP2;ratioP2;P2;SDS_P1;SDS_P2;PMS_P1;PMS_P2;Temp;Humidity;BMP_temperature;BMP_pressure;BME280_temperature;BME280_humidity;BME280_pressure;Samples;Min_cycle;Max_cycle;Signal;HPM_P1;HPM_P2
2022/09/27 00:02:06;;;;;;;;;73.00;54.00;;;;;11.37;100.00;98446.56;6317695;20;3630703;-50
2022/09/27 00:04:35;;;;;;;;;68.67;53.00;;;;;11.34;100.00;98447.69;6286944;20;3616491;-46
2022/09/27 00:07:04;;;;;;;;;65.33;51.00;;;;;11.17;100.00;98443.75;6286175;20;3624218;-44
2022/09/27 00:09:33;;;;;;;;;63.33;51.00;;;;;11.15;100.00;98444.84;6289775;20;3610827;-45
2022/09/27 00:12:03;;;;;;;;;67.00;53.67;;;;;11.14;100.00;98437.78;6288029;20;3621294;-47
2022/09/27 00:14:32;;;;;;;;;62.00;48.67;;;;;11.14;100.00;98437.78;6318205;20;3622164;-48
2022/09/27 00:17:01;;;;;;;;;66.00;51.33;;;;;11.01;100.00;98439.81;6283132;20;3630606;-48
2022/09/27 00:19:31;;;;;;;;;59.00;46.67;;;;;10.93;100.00;98424.31;6317371;20;3626953;-51
2022/09/27 00:22:01;;;;;;;;;60.33;48.67;;;;;10.91;100.00;98427.13;6311043;20;3627482;-47
2022/09/27 00:24:29;;;;;;;;;61.00;47.00;;;;;10.97;100.00;98423.06;6307998;20;2765943;-45
2022/09/27 00:26:58;;;;;;;;;61.00;48.33;;;;;11.25;100.00;98423.44;6273096;20;3619097;-48
2022/09/27 00:29:27;;;;;;;;;66.00;51.50;;;;;11.17;100.00;98416.03;6311800;20;2585698;-46
2022/09/27 00:31:56;;;;;;;;;64.33;52.00;;;;;11.02;100.00;98420.84;6310187;20;3627455;-48
2022/09/27 00:34:26;;;;;;;;;62.33;50.00;;;;;10.93;100.00;98409.06;6311827;20;3626811;-46
2022/09/27 00:36:55;;;;;;;;;61.33;50.33;;;;;10.94;100.00;98407.22;6309473;20;3625250;-49
2022/09/27 00:39:25;;;;;;;;;59.67;47.67;;;;;10.94;100.00;98409.91;6275072;20;3618988;-50
2022/09/27 00:41:55;;;;;;;;;62.00;48.50;;;;;10.65;100.00;98397.06;6314060;20;3638908;-51
2022/09/27 00:44:24;;;;;;;;;60.67;48.33;;;;;10.64;100.00;98395.38;6307460;20;3609739;-46
2022/09/27 00:47:09;;;;;;;;;53.00;45.00;;;;;10.59;100.00;98386.00;6306939;20;2850425;-48
2022/09/27 00:50:21;;;;;;;;;65.00;50.67;;;;;10.48;100.00;98382.38;6275354;20;3634656;-49
2022/09/27 00:53:08;;;;;;;;;67.33;51.00;;;;;10.62;100.00;98378.53;6307585;20;3637799;-51
2022/09/27 00:55:53;;;;;;;;;62.00;50.33;;;;;10.59;100.00;98383.31;6305900;20;3622287;-46
2022/09/27 00:58:42;;;;;;;;;61.33;48.33;;;;;10.59;100.00;98373.44;6306170;20;3627419;-46
2022/09/27 01:01:12;;;;;;;;;65.33;50.00;;;;;10.21;100.00;98379.22;6304413;20;3637796;-47
2022/09/27 01:04:12;;;;;;;;;63.67;50.67;;;;;10.18;100.00;98366.91;6307141;20;3625431;-48
2022/09/27 01:06:42;;;;;;;;;62.67;49.33;;;;;10.26;100.00;98366.28;6305740;20;3635801;-48
2022/09/27 01:09:12;;;;;;;;;64.67;50.67;;;;;10.35;100.00;98362.00;6311013;20;3637815;-47
2022/09/27 01:12:09;;;;;;;;;63.67;51.00;;;;;10.43;100.00;98360.44;6306215;20;3619058;-47
2022/09/27 01:15:23;;;;;;;;;61.00;46.67;;;;;10.98;100.00;98363.03;6276402;20;3625258;-48
2022/09/27 01:18:29;;;;;;;;;68.00;49.67;;;;;10.86;100.00;98358.69;6308926;20;3652394;-46
2022/09/27 01:21:20;;;;;;;;;68.67;50.67;;;;;11.03;100.00;98360.78;6308320;20;3643189;-50
2022/09/27 01:24:23;;;;;;;;;63.33;50.00;;;;;10.92;100.00;98359.00;6276737;20;3605479;-46
2022/09/27 01:27:41;;;;;;;;;65.67;51.67;;;;;10.95;100.00;98348.03;6308288;20;3626353;-47
2022/09/27 01:31:07;;;;;;;;;67.67;50.00;;;;;11.20;100.00;98352.16;6307505;20;3644163;-47
2022/09/27 01:34:06;;;;;;;;;64.33;50.33;;;;;11.20;100.00;98348.63;6304683;20;3616929;-47
2022/09/27 01:37:39;;;;;;;;;51.00;43.00;;;;;11.16;100.00;98339.09;6299918;20;2849245;-51
2022/09/27 01:40:49;;;;;;;;;54.33;41.33;;;;;11.03;100.00;98335.75;6274613;20;2860891;-47
2022/09/27 01:43:29;;;;;;;;;47.00;40.00;;;;;11.11;100.00;98335.94;6307092;20;3579442;-48
2022/09/27 01:46:16;;;;;;;;;56.33;43.33;;;;;10.90;100.00;98339.50;6271325;20;2870077;-46
2022/09/27 01:48:50;;;;;;;;;56.00;42.67;;;;;10.80;100.00;98332.34;6308282;20;3623290;-50
2022/09/27 01:51:29;;;;;;;;;54.33;43.00;;;;;10.86;100.00;98339.88;6306447;20;3615922;-46
2022/09/27 01:54:05;;;;;;;;;52.33;41.33;;;;;11.07;100.00;98332.69;6307320;20;3614818;-47
2022/09/27 01:56:54;;;;;;;;;57.00;43.67;;;;;11.27;100.00;98330.09;6304161;20;3624248;-49
2022/09/27 01:59:36;;;;;;;;;53.67;42.00;;;;;11.28;100.00;98334.53;6309036;20;3609692;-47
2022/09/27 02:02:11;;;;;;;;;63.67;49.00;;;;;11.13;100.00;98323.25;6277046;20;3620157;-50
2022/09/27 02:04:44;;;;;;;;;67.00;48.33;;;;;11.02;100.00;98329.53;6304581;20;3642951;-50
2022/09/27 02:07:42;;;;;;;;;59.33;46.00;;;;;10.93;100.00;98325.81;6271525;20;3632688;-48
2022/09/27 02:10:27;;;;;;;;;67.33;50.33;;;;;10.71;100.00;98324.06;6304714;20;3629488;-50
2022/09/27 02:13:27;;;;;;;;;53.33;40.00;;;;;11.20;100.00;98313.69;6271184;20;3619136;-49
2022/09/27 02:16:33;;;;;;;;;57.67;46.00;;;;;10.81;100.00;98318.78;6306128;20;3617030;-47
2022/09/27 02:19:52;;;;;;;;;62.33;48.00;;;;;10.89;100.00;98313.63;6309010;20;3623351;-48
2022/09/27 02:22:38;;;;;;;;;58.67;48.00;;;;;10.86;100.00;98311.19;6306171;20;3625315;-48
2022/09/27 02:25:27;;;;;;;;;56.67;46.33;;;;;10.67;100.00;98308.38;6303562;20;3608620;-49
2022/09/27 02:28:18;;;;;;;;;53.33;42.33;;;;;10.86;100.00;98310.34;6305080;20;2865168;-50
2022/09/27 02:30:48;;;;;;;;;54.67;43.33;;;;;10.87;100.00;98295.94;6307452;20;3597221;-48
2022/09/27 02:33:29;;;;;;;;;51.00;41.67;;;;;10.89;100.00;98299.34;6304920;20;2856620;-49
2022/09/27 02:35:59;;;;;;;;;53.00;40.33;;;;;10.75;100.00;98295.16;6302753;20;2865027;-48
2022/09/27 02:38:29;;;;;;;;;53.00;39.33;;;;;11.05;100.00;98302.41;6303605;20;3614816;-48
2022/09/27 02:40:58;;;;;;;;;53.33;42.33;;;;;11.25;100.00;98294.50;6308338;20;3612777;-46
2022/09/27 02:43:32;;;;;;;;;58.33;45.00;;;;;11.22;100.00;98298.28;6305337;20;3615884;-49
2022/09/27 02:46:24;;;;;;;;;56.67;45.67;;;;;11.03;100.00;98311.59;6302911;20;3609795;-47
2022/09/27 02:49:40;;;;;;;;;58.00;46.00;;;;;11.08;100.00;98315.56;6306358;20;3611789;-56
2022/09/27 02:53:12;;;;;;;;;61.67;46.67;;;;;11.20;100.00;98319.06;6306936;20;3637796;-56
2022/09/27 02:56:25;;;;;;;;;63.67;49.00;;;;;11.25;100.00;98307.94;6306305;20;3631550;-55
2022/09/27 02:59:23;;;;;;;;;60.67;48.00;;;;;11.06;100.00;98300.56;6310150;20;3620066;-55
2022/09/27 03:02:07;;;;;;;;;59.67;47.00;;;;;11.08;100.00;98304.84;6272556;20;3628420;-54
2022/09/27 03:05:07;;;;;;;;;58.67;44.67;;;;;11.14;100.00;98303.47;6305592;20;3630617;-55
2022/09/27 03:07:37;;;;;;;;;52.67;41.00;;;;;11.18;100.00;98305.75;6307799;20;2857636;-56
2022/09/27 03:10:06;;;;;;;;;44.50;37.50;;;;;10.94;100.00;98297.97;6302728;20;2491965;-56
2022/09/27 03:12:35;;;;;;;;;56.00;43.00;;;;;11.11;100.00;98301.91;6281793;20;3627400;-57
2022/09/27 03:15:05;;;;;;;;;49.67;39.00;;;;;10.99;100.00;98292.22;6280123;20;3599245;-57
2022/09/27 03:17:35;;;;;;;;;47.00;37.67;;;;;10.94;100.00;98281.84;6274694;20;3605684;-55
2022/09/27 03:20:04;;;;;;;;;43.33;36.00;;;;;10.70;100.00;98276.75;6308094;20;3599240;-57
2022/09/27 03:22:33;;;;;;;;;36.00;34.50;;;;;10.79;100.00;98283.16;6277661;20;2843136;-57
2022/09/27 03:25:01;;;;;;;;;47.67;39.33;;;;;10.98;100.00;98277.94;6276693;20;3608621;-56
2022/09/27 03:27:31;;;;;;;;;37.33;32.67;;;;;11.06;100.00;98285.34;6275909;20;2858198;-56
2022/09/27 03:30:00;;;;;;;;;38.00;33.00;;;;;11.07;100.00;98287.03;6308363;20;3600269;-57
2022/09/27 03:32:30;;;;;;;;;41.33;34.67;;;;;10.64;100.00;98281.78;6276238;20;3613786;-57
2022/09/27 03:34:58;;;;;;;;;42.00;36.00;;;;;10.63;100.00;98277.38;6307750;20;3597123;-57
2022/09/27 03:37:28;;;;;;;;;44.00;36.50;;;;;10.66;100.00;98277.97;6270789;20;2846248;-55
2022/09/27 03:39:57;;;;;;;;;42.33;37.00;;;;;10.46;100.00;98268.94;6277928;20;3597320;-55
2022/09/27 03:42:27;;;;;;;;;46.67;38.33;;;;;10.47;100.00;98272.47;6272102;20;2855017;-57
2022/09/27 03:44:56;;;;;;;;;42.33;38.00;;;;;10.37;100.00;98274.22;6304987;20;2845037;-55
2022/09/27 03:47:25;;;;;;;;;37.00;33.00;;;;;10.40;100.00;98277.50;6305777;20;3610716;-58
2022/09/27 03:49:54;;;;;;;;;47.00;38.00;;;;;10.39;100.00;98278.47;6275223;20;2862008;-59
2022/09/27 03:52:24;;;;;;;;;47.33;36.33;;;;;10.43;100.00;98287.13;6308241;20;3622214;-56
2022/09/27 03:54:53;;;;;;;;;49.00;42.00;;;;;10.77;100.00;98274.41;6305612;20;2841957;-57
2022/09/27 03:57:30;;;;;;;;;55.00;42.67;;;;;10.76;100.00;98273.53;6281373;20;3622295;-56
2022/09/27 04:00:00;;;;;;;;;56.67;46.00;;;;;10.30;100.00;98272.03;6312200;20;2858909;-55
2022/09/27 04:02:30;;;;;;;;;58.33;44.00;;;;;10.49;100.00;98275.88;6309810;20;3645029;-55
2022/09/27 04:04:59;;;;;;;;;66.33;50.33;;;;;10.50;100.00;98261.47;6308690;20;3639873;-55
2022/09/27 04:07:30;;;;;;;;;55.33;45.00;;;;;10.43;100.00;98253.09;6309152;20;2851382;-57
2022/09/27 04:09:58;;;;;;;;;50.67;42.67;;;;;10.35;100.00;98265.44;6315062;20;3600263;-55
2022/09/27 04:12:27;;;;;;;;;53.00;44.50;;;;;10.30;100.00;98266.69;6280286;20;2852366;-56
2022/09/27 04:14:57;;;;;;;;;48.33;41.00;;;;;10.36;100.00;98257.25;6278586;20;2855591;-56
2022/09/27 04:17:27;;;;;;;;;52.33;43.33;;;;;10.17;100.00;98265.97;6310847;20;2870211;-57
2022/09/27 04:19:56;;;;;;;;;47.00;39.50;;;;;10.30;100.00;98261.31;6310955;20;2855522;-57
2022/09/27 04:22:25;;;;;;;;;51.00;41.33;;;;;10.45;100.00;98255.63;6278106;20;2852359;-60
2022/09/27 04:24:55;;;;;;;;;54.33;44.33;;;;;10.44;100.00;98256.63;6308309;20;2859694;-58
2022/09/27 04:27:25;;;;;;;;;53.67;43.67;;;;;10.58;100.00;98250.94;6309457;20;3597169;-60
2022/09/27 04:29:54;;;;;;;;;56.33;44.33;;;;;10.72;100.00;98253.31;6313315;20;3621237;-46
2022/09/27 04:32:24;;;;;;;;;55.33;40.00;;;;;10.82;100.00;98244.47;6309785;20;3629540;-57
2022/09/27 04:37:43;;;;;;;;;51.00;39.33;;;;;10.19;100.00;98249.72;6309971;20;2845066;-55
2022/09/27 04:40:14;;;;;;;;;54.00;42.00;;;;;10.60;100.00;98246.28;6310180;20;2870228;-53
2022/09/27 04:42:43;;;;;;;;;51.00;40.00;;;;;10.72;100.00;98256.00;6310906;20;2856664;-57
2022/09/27 04:45:13;;;;;;;;;53.00;43.00;;;;;10.52;100.00;98252.31;6277644;20;2862822;-57
2022/09/27 04:47:48;;;;;;;;;46.33;39.00;;;;;10.66;100.00;98251.13;6308834;20;2846283;-57
2022/09/27 04:50:19;;;;;;;;;51.67;40.33;;;;;10.69;100.00;98252.69;6305479;20;2859707;-55
2022/09/27 04:52:53;;;;;;;;;51.33;40.00;;;;;10.26;100.00;98251.78;6308771;20;2860774;-56
2022/09/27 04:55:22;;;;;;;;;50.67;40.00;;;;;10.29;100.00;98248.91;6312926;20;3598317;-56
2022/09/27 04:57:52;;;;;;;;;52.67;42.33;;;;;10.35;100.00;98246.66;6278402;20;2856629;-55
2022/09/27 05:00:22;;;;;;;;;51.00;40.00;;;;;10.36;100.00;98245.69;6310632;20;2852583;-57
2022/09/27 05:02:51;;;;;;;;;51.67;42.67;;;;;10.49;100.00;98249.03;6310242;20;2861761;-53
2022/09/27 05:05:21;;;;;;;;;57.67;47.33;;;;;10.45;100.00;98256.50;6311504;20;3618028;-57
2022/09/27 05:07:50;;;;;;;;;55.00;44.67;;;;;10.66;100.00;98261.88;6306249;20;2857612;-57
2022/09/27 05:10:20;;;;;;;;;52.33;42.33;;;;;10.63;100.00;98254.06;6310980;20;3606492;-56
2022/09/27 05:12:49;;;;;;;;;48.50;41.00;;;;;10.76;100.00;98252.06;6307176;20;2854085;-56
2022/09/27 05:15:17;;;;;;;;;48.00;41.00;;;;;10.98;100.00;98251.06;6278448;20;2844023;-55
2022/09/27 05:17:51;;;;;;;;;54.00;43.33;;;;;10.68;100.00;98248.31;6277651;20;3612799;-56
2022/09/27 05:20:20;;;;;;;;;41.00;36.50;;;;;10.82;100.00;98244.47;6308679;20;2853364;-56
2022/09/27 05:22:49;;;;;;;;;46.50;41.00;;;;;11.07;100.00;98244.03;6278504;20;2846248;-55
2022/09/27 05:25:18;;;;;;;;;51.50;41.00;;;;;10.96;100.00;98233.41;6278694;20;2863881;-56
2022/09/27 05:27:50;;;;;;;;;59.67;45.00;;;;;11.09;100.00;98236.72;6278677;20;3630473;-57
2022/09/27 05:30:19;;;;;;;;;59.67;45.00;;;;;10.96;100.00;98231.56;6307555;20;3632537;-55
2022/09/27 05:32:49;;;;;;;;;56.33;44.00;;;;;11.18;100.00;98235.91;6308868;20;3601315;-57
2022/09/27 05:35:18;;;;;;;;;47.67;38.33;;;;;11.23;100.00;98232.81;6309772;20;3590895;-55
2022/09/27 05:37:59;;;;;;;;;48.50;40.50;;;;;11.31;100.00;98238.38;6277667;20;2860843;-57
2022/09/27 05:40:29;;;;;;;;;48.67;38.00;;;;;11.26;100.00;98237.06;6275970;20;2859662;-44
2022/09/27 05:43:10;;;;;;;;;56.33;43.33;;;;;11.31;100.00;98235.69;6305710;20;3622245;-45
2022/09/27 05:45:39;;;;;;;;;50.33;38.67;;;;;11.36;100.00;98237.97;6310815;20;3604553;-44
2022/09/27 05:48:11;;;;;;;;;54.33;42.00;;;;;11.34;100.00;98223.81;6277376;20;3629564;-45
2022/09/27 05:50:41;;;;;;;;;53.67;39.00;;;;;11.36;100.00;98219.16;6307247;20;3635661;-47
2022/09/27 05:53:12;;;;;;;;;57.00;45.67;;;;;11.19;100.00;98200.00;6307398;20;3619214;-46
2022/09/27 05:55:41;;;;;;;;;48.00;40.67;;;;;11.48;100.00;98199.28;6313990;20;3600243;-48
2022/09/27 05:58:15;;;;;;;;;54.00;44.33;;;;;11.45;100.00;98193.28;6276167;20;3624289;-48
2022/09/27 06:00:44;;;;;;;;;52.50;44.50;;;;;11.63;100.00;98203.25;6307367;20;2849346;-49
2022/09/27 06:03:13;;;;;;;;;36.00;31.50;;;;;11.61;100.00;98201.69;6270077;20;2836769;-50
2022/09/27 06:05:43;;;;;;;;;54.33;43.00;;;;;11.61;100.00;98207.94;6279476;20;3610696;-46
2022/09/27 06:08:19;;;;;;;;;51.33;40.33;;;;;11.64;100.00;98210.34;6307710;20;2874308;-57
2022/09/27 06:10:48;;;;;;;;;50.33;42.00;;;;;11.73;100.00;98214.03;6313796;20;3602449;-58
2022/09/27 06:13:17;;;;;;;;;55.33;41.67;;;;;11.75;100.00;98209.38;6276777;20;3619027;-57
2022/09/27 06:15:49;;;;;;;;;49.67;40.33;;;;;11.97;100.00;98210.16;6307754;20;2855584;-57
2022/09/27 06:18:19;;;;;;;;;51.67;38.33;;;;;11.92;100.00;98210.56;6304425;20;2864048;-57
2022/09/27 06:20:48;;;;;;;;;55.67;43.00;;;;;11.86;100.00;98214.66;6312842;20;3637784;-56
2022/09/27 06:23:21;;;;;;;;;52.33;40.67;;;;;11.91;100.00;98205.34;6272304;20;2857692;-55
2022/09/27 06:25:53;;;;;;;;;49.67;39.00;;;;;12.12;100.00;98206.06;6307973;20;2850470;-56
2022/09/27 06:28:22;;;;;;;;;43.33;37.33;;;;;12.11;100.00;98211.56;6310498;20;3580562;-58
2022/09/27 06:30:52;;;;;;;;;55.33;43.33;;;;;12.01;100.00;98207.03;6273565;20;3616989;-56
2022/09/27 06:33:22;;;;;;;;;57.67;43.33;;;;;11.97;100.00;98205.59;6307217;20;3628452;-57
2022/09/27 06:35:52;;;;;;;;;51.75;40.50;;;;;11.97;100.00;98208.31;6307463;20;3624175;-56
2022/09/27 06:38:23;;;;;;;;;53.33;43.00;;;;;12.27;100.00;98207.34;6308833;20;3621497;-53
2022/09/27 06:40:52;;;;;;;;;53.00;42.00;;;;;12.16;100.00;98214.69;6311759;20;3493399;-54
2022/09/27 06:43:21;;;;;;;;;55.00;42.00;;;;;12.18;100.00;98218.94;6305257;20;2764178;-55
2022/09/27 06:45:49;;;;;;;;;55.00;42.33;;;;;12.20;100.00;98226.88;6274419;20;3614839;-56
2022/09/27 06:48:18;;;;;;;;;57.00;43.00;;;;;12.58;100.00;98222.47;6278807;20;3616988;-56
2022/09/27 06:50:48;;;;;;;;;54.33;43.00;;;;;12.46;100.00;98216.41;6275617;20;3635760;-56
2022/09/27 06:53:17;;;;;;;;;53.00;43.00;;;;;12.61;100.00;98208.72;6305609;20;2758655;-55
2022/09/27 06:55:46;;;;;;;;;53.00;42.67;;;;;12.71;100.00;98209.56;6274768;20;2854551;-58
2022/09/27 07:01:03;;;;;;;;;58.00;44.00;;;;;12.88;100.00;98203.44;6279100;20;3618101;-45
2022/09/27 07:03:34;;;;;;;;;57.67;43.00;;;;;13.01;100.00;98208.50;6276949;20;3637775;-43
2022/09/27 07:06:19;;;;;;;;;55.33;45.67;;;;;12.93;100.00;98193.06;6280080;20;3616998;-60
2022/09/27 07:08:53;;;;;;;;;56.00;44.00;;;;;12.79;100.00;98196.22;6282205;20;3616976;-60
2022/09/27 07:11:22;;;;;;;;;54.00;42.67;;;;;12.69;100.00;98195.38;6282056;20;2860789;-60
2022/09/27 07:13:52;;;;;;;;;58.00;46.33;;;;;12.63;100.00;98201.34;6311201;20;3601405;-46
2022/09/27 07:16:22;;;;;;;;;51.67;41.00;;;;;12.71;100.00;98212.25;6308390;20;3614948;-57
2022/09/27 07:18:51;;;;;;;;;55.33;45.67;;;;;12.81;100.00;98233.78;6315334;20;3617969;-55
2022/09/27 07:21:20;;;;;;;;;51.67;41.00;;;;;12.69;100.00;98227.69;6283483;20;3615850;-56
2022/09/27 07:23:50;;;;;;;;;54.33;44.67;;;;;12.72;100.00;98233.66;6280283;20;3620037;-54
2022/09/27 07:26:18;;;;;;;;;51.00;42.67;;;;;12.83;100.00;98232.66;6308437;20;3610833;-45
2022/09/27 07:28:48;;;;;;;;;56.00;45.67;;;;;12.87;100.00;98231.34;6277047;20;3617051;-46
2022/09/27 07:31:17;;;;;;;;;53.33;44.00;;;;;12.99;100.00;98233.91;6317056;20;3608749;-46
2022/09/27 07:33:47;;;;;;;;;53.33;44.67;;;;;12.96;100.00;98235.88;6284327;20;2850535;-46
2022/09/27 07:36:16;;;;;;;;;52.33;42.67;;;;;12.73;100.00;98234.50;6312931;20;3598349;-45
2022/09/27 07:38:45;;;;;;;;;52.33;41.00;;;;;12.65;100.00;98231.69;6318713;20;3621114;-47
2022/09/27 07:41:14;;;;;;;;;60.67;46.67;;;;;12.83;100.00;98229.97;6283681;20;3639945;-49
2022/09/27 07:43:44;;;;;;;;;63.00;48.67;;;;;12.83;100.00;98231.81;6315394;20;3615917;-45
2022/09/27 07:46:13;;;;;;;;;58.00;46.00;;;;;13.00;100.00;98230.19;6284325;20;3629417;-47
2022/09/27 07:48:44;;;;;;;;;53.33;40.00;;;;;13.11;100.00;98233.59;6314273;20;3627414;-58
2022/09/27 07:51:13;;;;;;;;;49.67;41.00;;;;;13.30;100.00;98227.31;6317235;20;3603420;-59
2022/09/27 07:53:42;;;;;;;;;60.00;46.33;;;;;13.15;100.00;98226.91;6284693;20;3637809;-45
2022/09/27 07:56:11;;;;;;;;;49.00;41.00;;;;;13.38;100.00;98222.03;6312919;20;3609623;-45
2022/09/27 07:58:41;;;;;;;;;60.33;48.33;;;;;13.18;100.00;98223.06;6282644;20;3609665;-47
2022/09/27 08:01:11;;;;;;;;;56.25;44.75;;;;;13.43;100.00;98220.72;6318942;20;3625246;-47
2022/09/27 08:03:40;;;;;;;;;58.00;44.33;;;;;13.58;100.00;98224.63;6317419;20;3616918;-48
2022/09/27 08:06:10;;;;;;;;;60.33;44.67;;;;;13.67;100.00;98221.03;6282035;20;3641935;-46
2022/09/27 08:08:40;;;;;;;;;56.67;45.33;;;;;13.69;100.00;98220.88;6314422;20;3603373;-45
2022/09/27 08:11:17;;;;;;;;;50.67;41.33;;;;;13.88;100.00;98215.38;6315233;20;3619054;-48
2022/09/27 08:13:48;;;;;;;;;53.00;44.00;;;;;13.30;100.00;98221.91;6316619;20;3613022;-57
2022/09/27 08:16:18;;;;;;;;;53.67;42.67;;;;;13.30;100.00;98221.91;6282086;20;3614996;-56
2022/09/27 08:18:47;;;;;;;;;56.33;44.00;;;;;13.59;100.00;98216.41;6318527;20;3625356;-57
2022/09/27 08:21:15;;;;;;;;;54.00;43.67;;;;;13.88;100.00;98226.19;6287094;20;3606588;-45
2022/09/27 08:23:45;;;;;;;;;58.00;45.00;;;;;13.84;100.00;98231.00;6284613;20;3639921;-44
2022/09/27 08:26:14;;;;;;;;;55.00;44.33;;;;;13.81;100.00;98225.91;6317311;20;3607721;-44
2022/09/27 08:28:43;;;;;;;;;50.00;42.67;;;;;13.86;100.00;98232.72;6287295;20;3586718;-44
2022/09/27 08:31:12;;;;;;;;;54.00;43.33;;;;;14.15;100.00;98222.56;6281454;20;3627336;-44
2022/09/27 08:33:41;;;;;;;;;51.67;44.00;;;;;14.11;100.00;98226.56;6318127;20;3600274;-58
2022/09/27 08:36:11;;;;;;;;;54.33;43.33;;;;;14.21;100.00;98216.56;6281310;20;3612807;-57
2022/09/27 08:38:40;;;;;;;;;52.00;42.67;;;;;14.19;100.00;98218.59;6314214;20;3599322;-60
2022/09/27 08:41:36;;;;;;;;;53.33;40.33;;;;;14.23;100.00;98214.56;6281948;20;3626305;-56
2022/09/27 08:44:54;;;;;;;;;53.00;42.67;;;;;14.31;100.00;98205.69;6317846;20;3606536;-56
2022/09/27 08:47:49;;;;;;;;;54.50;42.50;;;;;14.22;100.00;98207.47;6284172;20;3634825;-60
2022/09/27 08:50:41;;;;;;;;;53.00;44.00;;;;;14.12;100.00;98213.94;6313672;20;3623293;-60
2022/09/27 08:53:17;;;;;;;;;59.67;47.33;;;;;14.33;100.00;98202.84;6279980;20;3612740;-60
2022/09/27 08:55:55;;;;;;;;;57.75;46.75;;;;;14.11;100.00;98210.38;6317367;20;3622116;-61
2022/09/27 08:58:48;;;;;;;;;58.67;46.33;;;;;14.04;100.00;98209.31;6313261;20;3620070;-60
2022/09/27 09:01:18;;;;;;;;;51.33;43.00;;;;;14.22;100.00;98215.56;6276417;20;3598184;-47
2022/09/27 09:03:57;;;;;;;;;53.00;44.00;;;;;14.25;100.00;98212.56;6309999;20;3603533;-60
2022/09/27 09:07:27;;;;;;;;;56.00;44.67;;;;;14.21;100.00;98230.06;6276791;20;3621129;-60
2022/09/27 09:13:54;;;;;;;;;54.67;45.00;;;;;14.22;100.00;98212.03;6279048;20;3621110;-54
2022/09/27 09:17:06;;;;;;;;;57.00;42.33;;;;;14.19;100.00;98199.69;6309300;20;3623175;-44
2022/09/27 09:20:13;;;;;;;;;66.67;53.33;;;;;14.37;100.00;98206.91;6278776;20;3603394;-44
2022/09/27 09:23:12;;;;;;;;;76.67;67.00;;;;;14.44;100.00;98206.16;6311650;20;3633605;-43
2022/09/27 09:26:04;;;;;;;;;58.00;45.00;;;;;14.49;100.00;98200.28;6279965;20;3624348;-60
2022/09/27 09:28:48;;;;;;;;;48.67;42.00;;;;;14.29;100.00;98205.00;6279151;20;3611730;-60
2022/09/27 09:31:51;;;;;;;;;60.25;45.75;;;;;14.56;100.00;98198.69;6309557;20;3635779;-47
2022/09/27 09:35:01;;;;;;;;;54.00;45.00;;;;;14.67;100.00;98203.84;6315313;20;3601319;-45
2022/09/27 09:38:01;;;;;;;;;56.67;44.00;;;;;14.57;100.00;98204.94;6274823;20;3621121;-45
2022/09/27 09:40:39;;;;;;;;;56.25;44.50;;;;;14.42;100.00;98199.19;6310287;20;3616906;-55
2022/09/27 09:43:31;;;;;;;;;54.50;44.00;;;;;14.50;100.00;98193.88;6311766;20;3633698;-55
2022/09/27 09:46:20;;;;;;;;;55.33;43.67;;;;;14.65;100.00;98189.63;6314045;20;3610707;-49
2022/09/27 09:49:38;;;;;;;;;56.33;44.00;;;;;14.88;100.00;98186.44;6277838;20;3608586;-54
2022/09/27 09:52:20;;;;;;;;;53.67;44.67;;;;;14.53;100.00;98181.94;6313511;20;3607739;-56
2022/09/27 09:55:27;;;;;;;;;50.00;41.33;;;;;14.98;100.00;98184.47;6278697;20;3613838;-54
2022/09/27 09:58:41;;;;;;;;;55.25;43.75;;;;;15.07;100.00;98178.09;6313124;20;3623355;-60
2022/09/27 10:01:26;;;;;;;;;53.00;42.00;;;;;15.12;100.00;98174.91;6315686;20;3620052;-57
2022/09/27 10:03:56;;;;;;;;;52.67;43.00;;;;;15.11;100.00;98171.38;6311252;20;3612800;-56
2022/09/27 10:06:28;;;;;;;;;58.25;46.75;;;;;14.63;100.00;98166.50;6281669;20;3633665;-55
2022/09/27 10:08:57;;;;;;;;;52.00;44.00;;;;;14.99;100.00;98161.84;6312991;20;3603480;-55
2022/09/27 10:11:41;;;;;;;;;52.33;42.00;;;;;14.81;100.00;98148.38;6278447;20;3622156;-46
2022/09/27 10:14:18;;;;;;;;;56.75;43.75;;;;;14.92;100.00;98158.06;6314419;20;3622237;-46
2022/09/27 10:16:57;;;;;;;;;61.50;46.00;;;;;14.67;100.00;98155.22;6311449;20;4402339;-47
2022/09/27 10:19:32;;;;;;;;;54.75;43.75;;;;;14.67;100.00;98157.91;6312098;20;4378450;-50
2022/09/27 10:22:24;;;;;;;;;52.33;41.67;;;;;15.01;100.00;98138.19;6313473;20;3614179;-50
2022/09/27 10:25:01;;;;;;;;;56.00;44.00;;;;;14.99;100.00;98123.16;6281682;20;3625277;-49
2022/09/27 10:27:45;;;;;;;;;52.50;40.50;;;;;14.68;100.00;98124.47;6281195;20;3620077;-55
2022/09/27 10:30:35;;;;;;;;;58.33;46.00;;;;;14.84;100.00;98123.72;6313085;20;3620235;-56
2022/09/27 10:33:20;;;;;;;;;56.00;45.38;;;;;14.77;100.00;98122.69;6301439;20;3630464;-56
2022/09/27 10:35:49;;;;;;;;;63.33;50.33;;;;;15.11;100.00;98122.72;6280298;20;3601327;-54
2022/09/27 10:38:33;;;;;;;;;58.33;48.00;;;;;15.04;100.00;98120.81;6279108;20;3619040;-50
2022/09/27 10:41:37;;;;;;;;;58.33;47.67;;;;;15.32;100.00;98124.13;6314884;20;3619005;-54
2022/09/27 10:44:31;;;;;;;;;57.63;45.88;;;;;15.46;100.00;98120.81;6300191;20;3627777;-55
2022/09/27 10:47:09;;;;;;;;;60.75;48.50;;;;;15.13;100.00;98117.13;6280035;20;3613822;-43
2022/09/27 10:49:41;;;;;;;;;59.67;44.67;;;;;15.17;100.00;98114.97;6310598;20;3621117;-44
2022/09/27 10:52:25;;;;;;;;;57.67;45.67;;;;;15.06;100.00;98107.97;6282319;20;3629446;-44
2022/09/27 10:54:59;;;;;;;;;53.00;43.33;;;;;15.48;100.00;98109.81;6278706;20;3621085;-44
2022/09/27 10:57:30;;;;;;;;;52.25;41.00;;;;;15.52;100.00;98105.78;6278713;20;3636808;-45
2022/09/27 11:00:19;;;;;;;;;52.00;43.00;;;;;15.81;100.00;98097.25;6310670;20;3616995;-47
2022/09/27 11:03:01;;;;;;;;;52.33;40.67;;;;;15.62;100.00;98100.25;6282650;20;3621137;-60
2022/09/27 11:05:38;;;;;;;;;50.00;42.00;;;;;15.81;100.00;98099.97;6278220;20;3603436;-60
2022/09/27 11:08:47;;;;;;;;;48.33;39.00;;;;;15.35;100.00;98102.19;6281576;20;3609718;-60
2022/09/27 11:11:27;;;;;;;;;47.33;39.00;;;;;15.63;100.00;98093.81;6309002;20;3603485;-60
2022/09/27 11:14:03;;;;;;;;;54.00;42.33;;;;;15.26;100.00;98084.22;6280197;20;3602493;-60
2022/09/27 11:17:14;;;;;;;;;47.67;39.67;;;;;15.63;100.00;98089.22;6279832;20;3617012;-59
2022/09/27 11:20:07;;;;;;;;;49.67;40.00;;;;;15.60;100.00;98092.28;6281406;20;3595058;-44
2022/09/27 11:23:01;;;;;;;;;45.67;38.00;;;;;15.39;100.00;98078.38;6281767;20;3590885;-43
2022/09/27 11:26:15;;;;;;;;;44.67;37.33;;;;;15.32;100.00;98079.03;6278757;20;2847232;-43
2022/09/27 11:29:01;;;;;;;;;43.00;36.33;;;;;15.56;100.00;98086.38;6307417;20;2852485;-46
2022/09/27 11:31:58;;;;;;;;;42.67;36.00;;;;;15.40;100.00;98074.63;6306304;20;3579502;-57
2022/09/27 11:34:36;;;;;;;;;44.67;37.00;;;;;15.63;100.00;98078.41;6277115;20;2850447;-44
2022/09/27 11:37:19;;;;;;;;;36.33;32.00;;;;;15.69;100.00;98071.53;6309131;20;3562735;-60
2022/09/27 11:41:05;;;;;;;;;39.33;35.67;;;;;15.99;100.00;98075.47;6280842;20;3593202;-60
2022/09/27 11:44:06;;;;;;;;;42.67;35.00;;;;;15.86;100.00;98067.84;6276484;20;2859782;-56
2022/09/27 11:46:36;;;;;;;;;46.33;37.00;;;;;15.97;100.00;98062.06;6309698;20;3592948;-45
2022/09/27 11:50:25;;;;;;;;;45.00;33.00;;;;;16.22;100.00;98056.69;6276758;20;3611795;-50
2022/09/27 11:53:35;;;;;;;;;37.50;33.50;;;;;16.48;100.00;98050.19;6272511;20;2845065;-56
2022/09/27 11:56:48;;;;;;;;;43.00;35.50;;;;;16.60;100.00;98049.66;6274636;20;2847191;-44
2022/09/27 12:00:05;;;;;;;;;32.67;31.67;;;;;16.71;100.00;98044.91;6280552;20;3588812;-54